Time;durP1;ratioP1;P1;durP2;ratioP2;P2;SDS_P1;SDS_P2;PMS_P1;PMS_P2;Temp;Humidity;BMP_temperature;BMP_pressure;BME280_temperature;BME280_humidity;BME280_pressure;Samples;Min_cycle;Max_cycle;Signal;HPM_P1;HPM_P2
2022/08/13 07:24:26;;;;;;;5.78;2.20;;;;;;;22.69;43.80;96588.19;2089072;28;20591;-66
2022/08/13 07:25:49;;;;;;;4.18;1.52;;;;;;;22.76;43.38;96583.97;2089266;28;20290;-66
2022/08/13 07:27:04;;;;;;;8.77;1.42;;;;;;;22.96;43.12;96582.91;2074210;28;20266;-66
2022/08/13 07:28:15;;;;;;;5.75;1.60;;;;;;;23.14;42.78;96587.44;2074564;28;21072;-67
2022/08/13 07:29:37;;;;;;;3.53;1.52;;;;;;;23.05;42.70;96583.00;2073510;28;20788;-67
2022/08/13 07:30:56;;;;;;;2.58;1.23;;;;;;;23.27;42.62;96585.31;2075192;28;20204;-67
2022/08/13 07:54:53;;;;;;;4.57;1.60;;;;;;;24.25;40.29;96568.53;2105404;27;20544;-68
2022/08/13 07:55:56;;;;;;;6.75;1.98;;;;;;;24.27;40.22;96571.88;2103670;28;20173;-68
2022/08/13 07:57:18;;;;;;;4.22;1.65;;;;;;;24.38;40.59;96576.13;2090599;28;20583;-69
2022/08/13 07:58:37;;;;;;;2.70;1.63;;;;;;;23.41;40.86;96577.78;2093027;28;20199;-69
2022/08/13 07:59:38;;;;;;;10.27;1.65;;;;;;;23.66;41.66;96572.69;2091724;28;20195;-69
2022/08/13 08:01:02;;;;;;;4.85;1.50;;;;;;;23.92;41.41;96580.78;2091679;28;20204;-69
2022/08/13 08:02:08;;;;;;;5.00;1.58;;;;;;;24.16;41.44;96580.13;2091489;28;20193;-69
2022/08/13 08:22:25;;;;;;;2.90;1.45;;;;;;;24.28;40.47;96572.72;2113476;27;20551;-69
2022/08/13 08:23:28;;;;;;;3.35;1.52;;;;;;;24.70;39.79;96572.00;2113734;28;20229;-69
2022/08/13 08:24:51;;;;;;;2.85;1.35;;;;;;;25.05;39.09;96580.00;2113951;28;20198;-70
2022/08/13 08:25:57;;;;;;;3.15;1.25;;;;;;;25.18;38.34;96577.72;2113698;28;20273;-70
2022/08/13 08:27:11;;;;;;;3.30;1.50;;;;;;;23.89;39.78;96581.88;2100258;28;20532;-70
2022/08/13 08:28:35;;;;;;;6.20;1.85;;;;;;;23.95;39.96;96583.97;2088985;28;20227;-70
2022/08/13 08:43:29;;;;;;;8.98;5.35;;;;;;;24.86;38.19;96576.59;2087975;28;20559;-66
2022/08/13 08:44:48;;;;;;;7.97;4.35;;;;;;;25.37;37.58;96576.63;2083517;28;20532;-66
2022/08/13 08:45:53;;;;;;;5.03;1.67;;;;;;;24.96;37.78;96575.63;2082305;28;20228;-66
2022/08/13 08:47:14;;;;;;;5.78;1.80;;;;;;;25.37;37.47;96573.97;2081070;28;20239;-67
2022/08/13 08:48:18;;;;;;;5.63;1.80;;;;;;;25.07;37.48;96572.66;2080316;28;20707;-66
2022/08/13 08:49:30;;;;;;;4.65;1.67;;;;;;;24.49;38.85;96579.53;2081655;28;20653;-66
2022/08/13 08:50:43;;;;;;;15.13;2.28;;;;;;;25.21;38.19;96573.88;2081843;28;20239;-66
2022/08/13 08:51:44;;;;;;;5.30;1.63;;;;;;;25.14;37.31;96579.03;2084469;28;20224;-67
2022/08/13 09:06:59;;;;;;;20.45;11.30;;;;;;;25.69;37.51;96569.66;2091158;28;21061;-66
2022/08/13 09:08:03;;;;;;;14.32;7.88;;;;;;;25.58;37.38;96580.66;2087520;28;20200;-67
2022/08/13 09:09:06;;;;;;;12.82;4.70;;;;;;;25.80;37.08;96579.22;2089905;28;20197;-67
2022/08/13 09:10:10;;;;;;;7.70;2.72;;;;;;;26.31;36.50;96575.53;2091114;28;20199;-67
2022/08/13 09:11:19;;;;;;;4.95;1.77;;;;;;;26.72;35.58;96580.81;2086804;28;20562;-67
2022/08/13 09:12:27;;;;;;;3.85;1.30;;;;;;;26.42;35.71;96580.53;2082439;28;20193;-67
2022/08/13 09:13:30;;;;;;;4.75;1.50;;;;;;;26.27;35.54;96583.09;2080937;28;20232;-66
2022/08/13 09:14:35;;;;;;;1.92;1.20;;;;;;;25.29;37.56;96581.06;2081590;28;20284;-66
2022/08/13 09:15:39;;;;;;;3.67;1.58;;;;;;;26.08;36.49;96589.63;2080670;28;20205;-66
2022/08/13 09:16:47;;;;;;;3.53;1.45;;;;;;;26.49;35.49;96578.84;2084275;28;20254;-66
2022/08/13 09:17:52;;;;;;;7.75;1.63;;;;;;;26.31;35.18;96581.75;2078840;28;20304;-66
2022/08/13 09:18:54;;;;;;;2.90;1.70;;;;;;;26.47;34.96;96588.06;2081778;28;20223;-66
2022/08/13 09:19:57;;;;;;;2.50;1.50;;;;;;;25.46;35.56;96579.31;2084097;28;20197;-66
2022/08/13 09:33:40;;;;;;;11.52;1.80;;;;;;;26.24;35.04;96562.84;2091781;27;20567;-64
2022/08/13 09:35:04;;;;;;;7.85;1.90;;;;;;;25.08;37.27;96572.50;2077437;28;20254;-68
2022/08/13 09:36:09;;;;;;;3.42;1.30;;;;;;;24.83;37.88;96568.88;2078309;28;20197;-65
2022/08/13 09:37:23;;;;;;;2.85;1.67;;;;;;;24.36;38.44;96562.09;2069962;28;20205;-68
2022/08/13 09:38:26;;;;;;;5.85;1.42;;;;;;;25.47;39.06;96571.16;2071370;28;20206;-66
2022/08/13 09:39:35;;;;;;;4.03;1.17;;;;;;;26.19;36.80;96567.03;2071193;28;20204;-69
2022/08/13 09:41:14;;;;;;;3.65;1.80;;;;;;;25.79;37.78;96560.63;2070088;28;20243;-63
2022/08/13 09:42:30;;;;;;;4.05;1.95;;;;;;;26.32;36.03;96559.31;2070186;28;20225;-64
2022/08/13 09:43:41;;;;;;;10.65;3.25;;;;;;;26.63;35.33;96565.78;2070325;28;20573;-65
2022/08/13 09:44:46;;;;;;;15.20;10.60;;;;;;;26.96;35.03;96563.84;2071073;28;20288;-65
2022/08/13 09:45:48;;;;;;;19.58;12.00;;;;;;;27.00;35.05;96556.31;2071072;28;20240;-65
2022/08/13 09:46:50;;;;;;;19.15;14.52;;;;;;;27.26;33.98;96563.22;2070557;28;20228;-65
2022/08/13 09:47:54;;;;;;;15.98;10.05;;;;;;;27.41;33.96;96561.47;2070714;28;20339;-65
2022/08/13 09:49:15;;;;;;;3.80;1.45;;;;;;;27.61;33.80;96561.03;2071085;28;20244;-64
2022/08/13 09:50:21;;;;;;;2.50;1.20;;;;;;;27.70;33.58;96560.78;2071132;28;20197;-66
2022/08/13 09:51:24;;;;;;;2.70;1.30;;;;;;;27.70;33.86;96560.78;2069946;28;20236;-65
2022/08/13 09:52:46;;;;;;;10.32;1.60;;;;;;;27.77;35.24;96560.91;2071094;28;20205;-65
2022/08/13 09:53:48;;;;;;;4.35;1.40;;;;;;;26.89;33.58;96554.84;2071282;28;20198;-65
2022/08/13 09:54:52;;;;;;;3.58;1.40;;;;;;;26.28;35.85;96565.19;2071205;28;20267;-64
2022/08/13 09:55:53;;;;;;;3.20;1.80;;;;;;;26.79;35.78;96563.09;2071338;28;20205;-65
2022/08/13 09:56:59;;;;;;;5.60;1.30;;;;;;;27.09;34.35;96560.63;2070680;28;20226;-64
2022/08/13 09:58:04;;;;;;;7.43;1.30;;;;;;;26.24;35.16;96554.81;2071030;28;20193;-65
2022/08/13 09:59:22;;;;;;;7.22;1.60;;;;;;;26.70;34.99;96556.91;2071202;28;20202;-64
2022/08/13 10:00:33;;;;;;;4.78;1.40;;;;;;;26.79;35.64;96555.06;2071145;28;20216;-64
2022/08/13 10:01:37;;;;;;;9.80;1.52;;;;;;;27.64;33.71;96556.16;2070113;28;20221;-64
2022/08/13 10:03:00;;;;;;;6.47;1.60;;;;;;;27.02;33.88;96551.59;2070773;28;20201;-65
2022/08/13 10:04:04;;;;;;;6.40;1.90;;;;;;;27.45;33.08;96559.28;2071103;28;20194;-65
2022/08/13 10:05:06;;;;;;;3.13;1.45;;;;;;;25.69;36.43;96560.81;2071010;28;20259;-64
2022/08/13 10:06:11;;;;;;;14.00;1.55;;;;;;;27.07;34.84;96562.66;2070830;28;20205;-64
2022/08/13 10:07:14;;;;;;;3.67;1.40;;;;;;;27.89;33.58;96555.13;2070934;28;20198;-65
2022/08/13 10:08:21;;;;;;;8.50;1.65;;;;;;;28.52;32.91;96561.13;2070701;28;20194;-65
2022/08/13 10:09:34;;;;;;;3.50;1.80;;;;;;;27.41;33.30;96561.47;2070623;28;20218;-65
2022/08/13 10:10:35;;;;;;;16.42;2.13;;;;;;;27.66;34.14;96555.97;2070384;28;20321;-65
2022/08/13 10:11:37;;;;;;;3.45;1.45;;;;;;;27.59;32.67;96549.63;2070443;28;20218;-65
2022/08/13 10:12:59;;;;;;;9.13;1.50;;;;;;;27.76;33.38;96556.56;2070629;28;20209;-65
2022/08/13 10:14:02;;;;;;;3.78;1.10;;;;;;;27.81;32.80;96556.84;2070992;28;20569;-65
2022/08/13 10:15:04;;;;;;;4.90;1.20;;;;;;;27.45;32.19;96546.72;2071007;28;20613;-65
2022/08/13 10:16:06;;;;;;;3.60;1.50;;;;;;;27.78;32.80;96556.38;2070555;28;20737;-65
2022/08/13 10:17:08;;;;;;;2.17;1.20;;;;;;;27.90;32.87;96554.13;2070479;28;20202;-64
2022/08/13 10:18:13;;;;;;;2.20;1.23;;;;;;;28.15;31.69;96552.91;2070828;28;20217;-67
2022/08/13 10:19:15;;;;;;;4.70;1.50;;;;;;;28.37;31.04;96552.19;2073220;28;20556;-67
2022/08/13 10:20:25;;;;;;;2.75;1.42;;;;;;;27.50;32.08;96555.06;2072753;28;20275;-67
2022/08/13 10:21:26;;;;;;;4.22;1.60;;;;;;;27.64;33.25;96550.78;2070365;28;20222;-67
2022/08/13 10:22:28;;;;;;;2.25;1.30;;;;;;;28.60;31.26;96544.09;2070235;28;20209;-67
2022/08/13 10:23:32;;;;;;;10.20;1.40;;;;;;;28.98;30.73;96549.38;2070278;28;20303;-67
2022/08/13 10:24:42;;;;;;;10.30;1.90;;;;;;;29.09;30.78;96548.06;2069933;28;20237;-67
2022/08/13 10:25:46;;;;;;;4.40;1.30;;;;;;;29.50;30.25;96542.16;2070793;28;20233;-67
2022/08/13 10:26:52;;;;;;;2.53;1.25;;;;;;;28.72;30.37;96552.53;2069311;28;20221;-67
2022/08/13 10:27:57;;;;;;;3.50;1.52;;;;;;;28.87;30.03;96542.63;2070694;28;20202;-67
2022/08/13 10:28:59;;;;;;;2.17;1.17;;;;;;;29.13;30.21;96552.88;2070660;28;20198;-67
2022/08/13 10:30:05;;;;;;;6.18;1.20;;;;;;;29.73;29.47;96551.91;2070838;28;20285;-67
2022/08/13 10:31:28;;;;;;;2.97;1.02;;;;;;;29.71;29.13;96554.81;2070143;28;20245;-67
2022/08/13 10:32:54;;;;;;;2.22;1.40;;;;;;;29.30;29.47;96550.00;2070238;28;20206;-67
2022/08/13 10:34:03;;;;;;;6.10;1.70;;;;;;;29.47;28.88;96555.97;2070149;28;20218;-67
2022/08/13 10:35:06;;;;;;;3.20;1.63;;;;;;;29.44;29.21;96546.44;2070789;28;20669;-67
2022/08/13 10:36:10;;;;;;;4.43;1.27;;;;;;;29.46;29.13;96549.78;2069239;28;20208;-67
2022/08/13 10:37:12;;;;;;;4.88;1.33;;;;;;;29.45;28.59;96548.09;2070855;28;20248;-67
2022/08/13 10:38:17;;;;;;;3.78;1.50;;;;;;;29.13;30.06;96546.69;2070648;28;20814;-67
2022/08/13 10:39:19;;;;;;;4.45;1.35;;;;;;;28.99;29.97;96554.56;2069571;28;20232;-67
2022/08/13 10:40:24;;;;;;;4.70;1.35;;;;;;;28.32;31.49;96544.72;2070753;28;20194;-67
2022/08/13 10:41:37;;;;;;;2.20;1.20;;;;;;;28.78;30.08;96547.25;2069525;28;20220;-67
2022/08/13 10:42:58;;;;;;;4.50;1.30;;;;;;;29.52;29.18;96550.03;2070053;28;20278;-66
2022/08/13 10:44:00;;;;;;;4.70;1.30;;;;;;;28.83;29.83;96547.53;2070660;28;20193;-67
2022/08/13 10:45:01;;;;;;;4.25;1.40;;;;;;;29.71;28.95;96544.03;2065275;28;20209;-66
2022/08/13 10:46:16;;;;;;;7.47;1.40;;;;;;;28.97;29.54;96539.66;2064812;28;20206;-67
2022/08/13 10:47:27;;;;;;;4.60;1.10;;;;;;;27.14;31.17;96554.75;2065352;28;20762;-67
2022/08/13 10:48:38;;;;;;;9.25;1.45;;;;;;;28.33;30.05;96547.22;2065136;28;20630;-67
2022/08/13 10:49:40;;;;;;;7.25;1.38;;;;;;;28.61;29.36;96545.75;2065424;28;20195;-67
2022/08/13 10:50:42;;;;;;;2.85;1.75;;;;;;;27.18;30.62;96545.34;2065441;28;20202;-67
2022/08/13 10:51:44;;;;;;;7.13;1.70;;;;;;;27.76;30.99;96539.66;2064851;28;20583;-67
2022/08/13 10:53:06;;;;;;;3.95;1.00;;;;;;;27.92;30.39;96538.66;2064035;28;20198;-67
2022/08/13 10:54:08;;;;;;;9.15;1.75;;;;;;;27.63;31.17;96542.91;2065226;28;20724;-67
2022/08/13 10:55:30;;;;;;;5.22;1.58;;;;;;;28.36;29.90;96529.91;2064570;28;20237;-67
2022/08/13 10:56:38;;;;;;;6.28;1.63;;;;;;;28.77;29.51;96536.69;2064446;28;20267;-67
2022/08/13 10:57:43;;;;;;;2.97;1.70;;;;;;;29.25;28.25;96541.66;2065040;28;20191;-67
2022/08/13 10:59:05;;;;;;;10.13;1.48;;;;;;;27.89;29.47;96537.19;2064779;28;20238;-67
2022/08/13 11:00:16;;;;;;;5.82;1.30;;;;;;;29.55;27.61;96538.91;2064622;28;20202;-67
2022/08/13 11:01:24;;;;;;;9.70;1.38;;;;;;;30.11;26.70;96535.50;2064093;28;20740;-67
2022/08/13 11:02:27;;;;;;;9.23;1.40;;;;;;;29.57;27.39;96528.78;2065231;28;20642;-67
2022/08/13 11:03:33;;;;;;;5.00;1.20;;;;;;;27.83;29.15;96543.25;2065357;28;20271;-67
2022/08/13 11:04:49;;;;;;;3.03;1.30;;;;;;;27.51;30.37;96537.94;2065168;28;20221;-67
2022/08/13 11:05:54;;;;;;;4.50;1.10;;;;;;;27.18;30.52;96540.78;2064814;28;20227;-66
2022/08/13 11:07:00;;;;;;;3.35;1.33;;;;;;;27.58;30.40;96537.25;2080335;28;20547;-67
2022/08/13 11:08:03;;;;;;;3.75;1.20;;;;;;;26.32;31.67;96540.59;2078218;28;20201;-67
2022/08/13 11:09:06;;;;;;;8.43;1.27;;;;;;;27.85;30.67;96534.03;2065178;28;20199;-67
2022/08/13 11:10:26;;;;;;;4.68;1.27;;;;;;;28.97;29.15;96527.03;2064253;28;20668;-67
2022/08/13 11:11:34;;;;;;;3.15;1.27;;;;;;;27.48;30.70;96529.44;2064666;28;20317;-66
2022/08/13 11:12:53;;;;;;;1.77;1.10;;;;;;;28.37;30.55;96534.25;2064748;28;20746;-67
2022/08/13 11:14:06;;;;;;;4.60;1.60;;;;;;;27.79;31.00;96534.72;2064997;28;20202;-67
2022/08/13 11:15:10;;;;;;;7.18;1.38;;;;;;;27.97;31.12;96530.91;2065122;28;20194;-67
2022/08/13 11:17:36;;;;;;;7.72;1.40;;;;;;;28.27;31.13;96525.66;2064360;28;20538;-67
2022/08/13 11:37:27;;;;;;;8.00;1.80;;;;;;;30.94;25.50;96534.81;2097740;28;20843;-63
2022/08/13 11:38:42;;;;;;;3.05;1.20;;;;;;;31.76;24.58;96543.00;2092489;28;20199;-63
2022/08/13 11:39:43;;;;;;;5.18;1.30;;;;;;;30.94;24.84;96543.75;2086808;28;20185;-63
2022/08/13 11:41:05;;;;;;;12.55;2.03;;;;;;;30.67;25.22;96540.06;2084313;28;20215;-64
2022/08/13 11:42:11;;;;;;;2.63;1.10;;;;;;;30.78;24.65;96546.78;2077920;28;20209;-64
2022/08/13 11:43:13;;;;;;;7.68;1.60;;;;;;;29.11;26.24;96530.72;2076101;28;20375;-65
2022/08/13 11:44:18;;;;;;;8.77;1.50;;;;;;;28.21;26.85;96531.75;2076260;28;20734;-66
2022/08/13 11:45:20;;;;;;;20.27;6.95;;;;;;;29.12;26.93;96540.47;2072454;28;20723;-71
2022/08/13 11:46:22;;;;;;;7.45;1.90;;;;;;;29.90;25.66;96539.06;2078212;28;20620;-68
2022/08/13 11:47:25;;;;;;;3.78;1.30;;;;;;;30.65;25.37;96536.72;2078526;28;20231;-69
2022/08/13 11:48:33;;;;;;;2.00;1.00;;;;;;;30.41;24.88;96535.31;2074127;28;20189;-69
2022/08/13 11:49:41;;;;;;;1.70;1.20;;;;;;;30.39;25.64;96526.59;2074379;28;20205;-69
2022/08/13 11:50:43;;;;;;;2.17;1.48;;;;;;;31.26;24.87;96532.47;2070735;28;20209;-69
2022/08/13 11:51:45;;;;;;;5.82;1.20;;;;;;;31.94;24.18;96530.78;2076001;28;20255;-68
2022/08/13 11:52:52;;;;;;;43.25;24.65;;;;;;;32.00;23.88;96524.53;2075056;28;20202;-68
2022/08/13 11:53:55;;;;;;;5.57;2.03;;;;;;;31.69;24.64;96532.22;2073866;28;20194;-67
2022/08/13 11:55:16;;;;;;;6.20;3.30;;;;;;;32.06;24.34;96529.94;2074656;28;20427;-68
2022/08/13 11:56:18;;;;;;;3.80;1.10;;;;;;;30.30;24.94;96534.81;2073275;28;20482;-67
2022/08/13 11:57:23;;;;;;;4.73;1.00;;;;;;;29.38;26.37;96514.94;2073976;28;20467;-67
2022/08/13 11:58:29;;;;;;;7.57;1.63;;;;;;;30.46;25.88;96532.84;2075956;28;20647;-67
2022/08/13 11:59:48;;;;;;;2.53;1.00;;;;;;;31.19;25.05;96526.25;2075288;28;20431;-68
2022/08/13 12:00:55;;;;;;;10.00;0.93;;;;;;;31.59;25.03;96523.63;2074002;28;20422;-67
2022/08/13 12:01:58;;;;;;;3.60;1.30;;;;;;;31.51;24.57;96537.31;2072860;28;20197;-67
2022/08/13 12:03:00;;;;;;;1.97;1.00;;;;;;;30.75;25.82;96525.59;2074962;28;20965;-67
2022/08/13 12:04:02;;;;;;;3.83;1.43;;;;;;;31.32;25.32;96533.53;2070969;28;20427;-67
2022/08/13 12:05:23;;;;;;;2.43;1.20;;;;;;;29.30;26.58;96520.44;2076065;28;20422;-67
2022/08/13 12:06:29;;;;;;;2.20;1.25;;;;;;;29.22;27.88;96531.28;2074206;28;20505;-67
2022/08/13 12:07:31;;;;;;;2.45;1.23;;;;;;;29.00;27.57;96528.50;2071633;28;20198;-67
2022/08/13 12:08:44;;;;;;;4.47;1.77;;;;;;;29.11;28.04;96524.53;2073833;28;20641;-66
2022/08/13 12:10:05;;;;;;;3.00;1.60;;;;;;;29.00;28.03;96523.13;2076234;28;20243;-65
2022/08/13 12:11:27;;;;;;;3.20;1.52;;;;;;;30.56;25.48;96527.16;2076919;28;20271;-67
2022/08/13 12:12:48;;;;;;;3.75;1.40;;;;;;;29.97;26.50;96529.19;2077668;28;20209;-66
2022/08/13 12:13:51;;;;;;;7.23;1.17;;;;;;;29.31;27.10;96516.72;2071143;28;20202;-67
2022/08/13 12:14:54;;;;;;;2.37;1.20;;;;;;;30.07;26.56;96513.53;2070863;28;20514;-66
2022/08/13 12:15:56;;;;;;;2.25;1.25;;;;;;;30.79;25.05;96526.84;2072154;28;20420;-66
2022/08/13 12:32:28;;;;;;;2.22;1.15;;;;;;;27.42;29.33;96506.03;2084459;28;20568;-65
2022/08/13 12:33:31;;;;;;;2.55;1.35;;;;;;;27.95;28.77;96508.81;2083861;28;20232;-65
2022/08/13 12:34:41;;;;;;;5.05;1.42;;;;;;;28.68;28.14;96501.03;2081602;28;20216;-65
2022/08/13 12:35:50;;;;;;;2.25;1.23;;;;;;;28.71;27.60;96510.59;2083593;28;20635;-65
2022/08/13 12:36:58;;;;;;;3.58;1.00;;;;;;;28.49;28.19;96497.03;2076291;28;20214;-65
2022/08/13 12:38:15;;;;;;;5.95;1.80;;;;;;;28.31;27.70;96498.22;2073559;28;20679;-64
2022/08/13 12:39:31;;;;;;;3.90;1.60;;;;;;;29.17;27.26;96492.34;2072386;28;20193;-65
2022/08/13 12:40:35;;;;;;;2.90;1.15;;;;;;;30.41;25.92;96493.06;2076868;28;20201;-65
2022/08/13 12:41:36;;;;;;;2.13;1.30;;;;;;;31.18;25.44;96494.91;2075807;28;20720;-66
2022/08/13 12:42:46;;;;;;;3.47;1.30;;;;;;;29.99;26.19;96494.81;2073430;28;20213;-65
2022/08/13 12:43:57;;;;;;;2.13;1.30;;;;;;;31.82;24.71;96498.16;2073659;28;20202;-65
2022/08/13 12:45:19;;;;;;;2.65;1.13;;;;;;;32.42;24.11;96487.34;2074213;28;20208;-68
2022/08/13 12:46:40;;;;;;;5.10;1.10;;;;;;;33.25;23.30;96491.22;2074021;28;20227;-68
2022/08/13 12:47:47;;;;;;;7.00;1.58;;;;;;;32.11;23.65;96483.41;2075221;28;20193;-66
2022/08/13 12:48:50;;;;;;;3.07;1.20;;;;;;;32.16;24.13;96480.91;2071942;28;20220;-65
2022/08/13 12:49:52;;;;;;;2.60;1.17;;;;;;;32.10;24.32;96481.78;2070784;28;20424;-66
2022/08/13 12:51:07;;;;;;;2.23;1.10;;;;;;;32.72;23.61;96476.88;2070841;28;20457;-65
2022/08/13 12:52:09;;;;;;;1.97;1.30;;;;;;;32.79;23.37;96482.28;2071620;28;20455;-65
2022/08/13 12:53:11;;;;;;;4.73;1.50;;;;;;;31.17;25.13;96483.28;2072615;28;20426;-65
2022/08/13 12:54:12;;;;;;;4.97;1.40;;;;;;;31.53;24.73;96473.22;2073188;28;20426;-65
2022/08/13 12:55:35;;;;;;;2.53;1.30;;;;;;;29.99;25.87;96478.66;2071660;28;20435;-65
2022/08/13 12:56:39;;;;;;;5.37;1.20;;;;;;;29.16;26.62;96479.91;2072413;28;20803;-65
2022/08/13 12:57:45;;;;;;;2.00;1.10;;;;;;;29.39;26.53;96470.88;2073210;28;20438;-65
2022/08/13 12:59:05;;;;;;;1.73;1.00;;;;;;;30.25;25.72;96474.53;2073977;28;20441;-65
2022/08/13 13:00:09;;;;;;;2.80;1.05;;;;;;;31.26;25.24;96460.50;2071334;28;20485;-65
2022/08/13 13:01:14;;;;;;;4.33;1.80;;;;;;;31.07;25.06;96477.44;2075668;28;21909;-64
2022/08/13 13:18:25;;;;;;;2.57;1.20;;;;;;;33.39;22.55;96470.38;2094521;27;20878;-65
2022/08/13 13:19:47;;;;;;;2.23;1.20;;;;;;;34.28;22.65;96475.72;2095340;28;20988;-66
2022/08/13 13:21:07;;;;;;;3.30;1.57;;;;;;;34.06;21.76;96474.50;2092708;28;20475;-65
2022/08/13 13:22:11;;;;;;;1.70;0.93;;;;;;;31.39;23.98;96466.97;2087538;28;20456;-65
2022/08/13 13:23:15;;;;;;;3.13;1.40;;;;;;;30.80;25.08;96463.03;2087732;28;20754;-65
2022/08/13 13:24:18;;;;;;;3.77;1.13;;;;;;;31.56;24.22;96464.69;2086457;28;20453;-65
2022/08/13 13:25:25;;;;;;;2.47;1.20;;;;;;;32.42;23.51;96470.31;2103523;28;20496;-66
2022/08/13 13:26:27;;;;;;;5.03;1.43;;;;;;;33.46;22.85;96465.75;2093183;28;20459;-66
2022/08/13 13:27:32;;;;;;;5.33;1.10;;;;;;;33.96;21.79;96454.13;2086235;28;20433;-66
2022/08/13 13:28:49;;;;;;;4.50;1.67;;;;;;;34.53;21.04;96468.66;2087565;28;20429;-66
2022/08/13 13:29:50;;;;;;;24.80;18.97;;;;;;;35.09;20.61;96474.88;2086119;28;20437;-67
2022/08/13 13:30:53;;;;;;;10.90;8.63;;;;;;;35.22;20.13;96474.69;2086903;28;20425;-67
2022/08/13 13:32:15;;;;;;;6.90;5.80;;;;;;;34.89;20.58;96459.66;2086877;28;20461;-67
2022/08/13 13:33:36;;;;;;;27.37;22.40;;;;;;;35.13;20.20;96463.31;2087529;28;20421;-66
2022/08/13 13:34:44;;;;;;;5.40;1.90;;;;;;;35.78;19.33;96463.66;2087478;28;20433;-65
2022/08/13 13:35:49;;;;;;;1.77;1.00;;;;;;;35.26;20.01;96469.63;2087529;28;20928;-65
2022/08/13 13:37:12;;;;;;;3.33;1.07;;;;;;;34.10;20.80;96459.44;2086552;28;20453;-66
2022/08/13 13:38:17;;;;;;;3.80;0.83;;;;;;;34.37;20.84;96445.66;2087100;28;20464;-66
2022/08/13 13:39:19;;;;;;;1.63;1.00;;;;;;;34.53;20.67;96455.91;2086466;28;20425;-66
2022/08/13 13:40:22;;;;;;;2.57;1.30;;;;;;;34.80;20.75;96453.69;2087409;28;20472;-66
2022/08/13 13:41:25;;;;;;;3.90;1.13;;;;;;;35.11;20.77;96454.59;2086321;28;20540;-66
2022/08/13 13:42:46;;;;;;;3.93;1.00;;;;;;;33.19;22.43;96451.53;2086584;28;20469;-66
2022/08/13 13:44:08;;;;;;;4.07;1.20;;;;;;;34.33;21.43;96465.09;2087480;28;20458;-66
2022/08/13 13:45:30;;;;;;;1.53;1.00;;;;;;;34.88;20.93;96449.06;2087488;28;20461;-67
2022/08/13 13:46:39;;;;;;;1.20;1.00;;;;;;;35.60;20.47;96456.44;2086965;28;20461;-67
2022/08/13 13:47:41;;;;;;;8.80;3.77;;;;;;;35.74;20.61;96452.44;2086774;28;20487;-66
2022/08/13 13:48:42;;;;;;;19.47;12.70;;;;;;;35.52;20.37;96467.63;2086778;28;20909;-66
2022/08/13 13:49:44;;;;;;;1.73;1.10;;;;;;;32.70;22.18;96445.72;2087470;28;20433;-66
2022/08/13 13:50:47;;;;;;;4.03;1.40;;;;;;;33.57;21.72;96439.03;2087290;28;20430;-66
2022/08/13 13:51:49;;;;;;;7.70;6.00;;;;;;;33.83;21.76;96444.25;2086965;28;20453;-66
2022/08/13 13:52:53;;;;;;;4.67;2.67;;;;;;;34.02;21.71;96442.44;2087561;28;20422;-66
2022/08/13 13:54:15;;;;;;;4.30;1.10;;;;;;;34.66;21.05;96444.94;2087399;28;20463;-66
2022/08/13 13:55:26;;;;;;;3.23;1.27;;;;;;;35.40;20.83;96437.72;2087501;28;20524;-66
2022/08/13 13:56:28;;;;;;;2.67;0.97;;;;;;;35.30;20.63;96436.38;2086931;28;20861;-66
2022/08/13 13:57:31;;;;;;;3.03;1.50;;;;;;;34.42;21.30;96437.69;2087444;28;20437;-66
2022/08/13 13:58:40;;;;;;;2.33;1.00;;;;;;;34.91;20.52;96437.78;2086626;28;20418;-66
2022/08/13 13:59:56;;;;;;;2.00;1.00;;;;;;;35.64;20.18;96438.59;2087336;28;20966;-66
2022/08/13 14:01:01;;;;;;;3.13;1.00;;;;;;;35.50;20.09;96431.75;2085084;28;20434;-66
2022/08/13 14:02:04;;;;;;;3.40;1.23;;;;;;;35.83;19.41;96436.63;2087330;28;20425;-66
2022/08/13 14:03:09;;;;;;;4.40;1.00;;;;;;;35.70;19.40;96436.84;2087371;28;20555;-66
2022/08/13 14:04:19;;;;;;;1.87;0.90;;;;;;;35.76;19.89;96431.31;2086961;28;20847;-66
2022/08/13 14:05:20;;;;;;;1.67;0.80;;;;;;;35.68;19.91;96439.81;2087422;28;20932;-66
2022/08/13 14:06:44;;;;;;;2.60;1.20;;;;;;;36.09;19.50;96432.66;2086581;28;20450;-66
2022/08/13 14:07:53;;;;;;;1.83;0.80;;;;;;;35.27;20.21;96431.41;2087392;28;20490;-66
2022/08/13 14:08:56;;;;;;;7.83;1.13;;;;;;;35.71;19.77;96435.81;2087394;28;20425;-66
2022/08/13 14:09:59;;;;;;;1.97;1.03;;;;;;;35.78;19.81;96431.91;2087268;28;20437;-66
2022/08/13 14:11:04;;;;;;;4.33;0.90;;;;;;;35.59;19.93;96433.06;2086806;28;20429;-66
2022/08/13 14:25:39;;;;;;;4.50;1.30;;;;;;;30.58;23.91;96420.03;2084886;28;20573;-65
2022/08/13 14:26:44;;;;;;;2.70;1.10;;;;;;;30.88;24.41;96423.25;2071502;28;20554;-65
2022/08/13 14:27:47;;;;;;;4.20;1.50;;;;;;;32.40;23.12;96417.34;2071196;28;20454;-65
2022/08/13 14:28:50;;;;;;;4.57;1.03;;;;;;;33.33;22.15;96411.72;2071204;28;20467;-65
2022/08/13 14:29:51;;;;;;;5.47;1.33;;;;;;;31.58;23.06;96420.28;2071129;28;20430;-66
2022/08/13 14:30:55;;;;;;;3.30;1.10;;;;;;;31.90;22.70;96414.28;2071603;28;20771;-66
2022/08/13 14:31:56;;;;;;;3.30;1.20;;;;;;;32.28;22.56;96407.38;2071238;28;20440;-65
2022/08/13 14:32:59;;;;;;;2.83;1.53;;;;;;;33.41;21.53;96418.75;2071247;28;20450;-66
2022/08/13 14:34:07;;;;;;;1.50;1.07;;;;;;;33.05;21.88;96421.88;2070803;28;20470;-66
2022/08/13 14:35:15;;;;;;;1.40;0.93;;;;;;;31.12;23.05;96415.66;2071361;28;20428;-66
2022/08/13 14:36:17;;;;;;;2.23;1.00;;;;;;;30.78;23.29;96391.31;2070746;28;20995;-66
2022/08/13 14:37:29;;;;;;;8.90;1.40;;;;;;;31.73;23.06;96412.03;2072055;28;20435;-66
2022/08/13 14:38:35;;;;;;;1.90;0.90;;;;;;;33.17;22.30;96408.47;2071801;28;20493;-66
2022/08/13 14:39:43;;;;;;;3.83;1.50;;;;;;;33.25;22.25;96401.97;2070410;28;20466;-65
2022/08/13 14:40:59;;;;;;;4.27;1.30;;;;;;;33.90;21.35;96411.69;2070791;28;20519;-65
2022/08/13 14:42:27;;;;;;;3.27;1.30;;;;;;;31.31;23.77;96408.63;2071100;28;21122;-64
2022/08/13 14:56:29;;;;;;;1.60;1.10;;;;;;;31.54;23.76;96381.28;2078939;27;20566;-68
2022/08/13 14:57:33;;;;;;;1.97;1.13;;;;;;;31.74;23.67;96377.75;2071406;28;21014;-66
2022/08/13 14:58:42;;;;;;;2.70;1.20;;;;;;;32.71;23.16;96393.31;2071200;28;20431;-68
2022/08/13 14:59:44;;;;;;;2.03;1.20;;;;;;;33.33;22.10;96393.63;2069230;28;20423;-66
2022/08/13 15:00:54;;;;;;;1.53;0.90;;;;;;;34.47;21.66;96400.72;2071253;28;20459;-67
2022/08/13 15:01:59;;;;;;;4.40;1.10;;;;;;;35.35;20.22;96391.44;2070298;28;20442;-67
2022/08/13 15:03:01;;;;;;;2.77;1.07;;;;;;;33.34;21.46;96392.59;2070975;28;20483;-67
2022/08/13 15:04:18;;;;;;;5.30;1.00;;;;;;;34.01;21.61;96397.44;2071315;28;20446;-69
2022/08/13 15:05:26;;;;;;;4.93;1.17;;;;;;;35.25;20.30;96392.00;2071869;28;20434;-69
2022/08/13 15:06:41;;;;;;;1.30;0.80;;;;;;;35.49;20.04;96392.94;2070864;28;20466;-69
2022/08/13 15:07:47;;;;;;;4.00;1.20;;;;;;;34.75;20.34;96396.63;2071283;28;20431;-68
2022/08/13 15:08:57;;;;;;;5.07;1.00;;;;;;;35.30;20.35;96400.25;2070557;28;20423;-69
2022/08/13 15:10:00;;;;;;;4.30;1.10;;;;;;;35.33;19.90;96394.38;2071179;28;21011;-69
2022/08/13 15:11:05;;;;;;;2.30;0.80;;;;;;;33.46;21.66;96394.56;2070887;28;20423;-69
2022/08/13 15:12:18;;;;;;;3.33;0.90;;;;;;;34.05;21.10;96389.69;2070442;28;20522;-65
2022/08/13 15:13:22;;;;;;;6.30;1.20;;;;;;;34.66;20.65;96390.72;2070576;28;20432;-67
2022/08/13 15:14:24;;;;;;;7.53;1.03;;;;;;;33.52;21.43;96391.81;2070505;28;20431;-67
2022/08/13 15:15:27;;;;;;;1.23;1.10;;;;;;;31.19;23.24;96392.25;2069733;28;20446;-67
2022/08/13 15:16:38;;;;;;;3.83;1.13;;;;;;;29.65;24.90;96384.22;2070512;28;20468;-66
2022/08/13 15:17:46;;;;;;;4.03;1.00;;;;;;;29.84;25.43;96387.28;2070517;28;20436;-66
2022/08/13 15:18:56;;;;;;;1.70;1.00;;;;;;;30.24;24.39;96389.41;2070795;28;20438;-66
2022/08/13 15:19:59;;;;;;;3.70;1.20;;;;;;;30.26;24.93;96379.25;2071058;28;20431;-66
2022/08/13 15:21:01;;;;;;;2.43;1.20;;;;;;;30.19;24.54;96375.69;2070508;28;20439;-66
2022/08/13 15:22:03;;;;;;;2.27;1.00;;;;;;;30.80;24.20;96376.81;2071178;28;20451;-66
2022/08/13 15:23:11;;;;;;;2.20;1.10;;;;;;;32.34;23.20;96363.31;2071235;28;20427;-66
2022/08/13 15:24:22;;;;;;;5.20;1.20;;;;;;;33.42;22.09;96385.22;2070340;28;20431;-66
2022/08/13 15:25:25;;;;;;;2.60;1.17;;;;;;;32.21;22.60;96373.16;2070701;28;20481;-66